createdAt,value
2022-12-12T00:01:27.062Z,1.10
2022-12-12T00:03:55.264Z,1.20
2022-12-12T00:06:24.707Z,1.00
2022-12-12T00:08:53.293Z,1.00
2022-12-12T00:11:22.393Z,1.00
2022-12-12T00:13:50.868Z,1.00
2022-12-12T00:16:20.552Z,1.00
2022-12-12T00:18:48.892Z,1.00
2022-12-12T00:21:18.766Z,1.00
2022-12-12T00:23:47.258Z,1.00
2022-12-12T00:26:19.257Z,0.90
2022-12-12T00:28:47.899Z,1.10
2022-12-12T00:31:17.410Z,0.90
2022-12-12T00:33:49.971Z,0.90
2022-12-12T00:36:20.035Z,0.90
2022-12-12T00:38:48.587Z,0.80
2022-12-12T00:41:17.487Z,0.90
2022-12-12T00:43:45.697Z,0.90
2022-12-12T00:46:16.019Z,0.90
2022-12-12T00:48:44.375Z,0.90
2022-12-12T00:51:18.358Z,0.90
2022-12-12T00:53:47.179Z,0.90
2022-12-12T00:56:17.062Z,0.80
2022-12-12T00:58:46.611Z,0.80
2022-12-12T01:01:17.740Z,0.80
2022-12-12T01:03:54.898Z,0.90
2022-12-12T01:06:24.720Z,0.90
2022-12-12T01:08:52.927Z,0.90
2022-12-12T01:11:21.730Z,0.90
2022-12-12T01:13:50.975Z,0.90
2022-12-12T01:16:19.314Z,0.90
2022-12-12T01:18:47.768Z,0.90
2022-12-12T01:21:17.862Z,0.80
2022-12-12T01:23:47.490Z,0.80
2022-12-12T01:26:17.772Z,0.90
2022-12-12T01:28:46.700Z,0.80
2022-12-12T01:31:15.676Z,0.90
2022-12-12T01:33:46.052Z,0.90
2022-12-12T01:36:16.683Z,0.90
2022-12-12T01:38:47.436Z,0.90
2022-12-12T01:41:16.738Z,0.80
2022-12-12T01:43:45.214Z,0.80
2022-12-12T01:46:39.543Z,0.80
2022-12-12T01:49:14.328Z,0.80
2022-12-12T01:51:44.150Z,0.90
2022-12-12T01:54:17.254Z,0.90
2022-12-12T01:56:46.842Z,0.80
2022-12-12T01:59:17.134Z,0.80
2022-12-12T02:01:45.958Z,0.80
2022-12-12T02:04:16.466Z,0.80
2022-12-12T02:06:45.025Z,0.80
2022-12-12T02:09:16.888Z,0.80
2022-12-12T02:11:46.991Z,0.80
2022-12-12T02:14:18.488Z,0.80
2022-12-12T02:17:09.240Z,0.80
2022-12-12T02:20:20.923Z,0.80
2022-12-12T02:23:31.635Z,0.80
2022-12-12T02:26:27.689Z,0.90
2022-12-12T02:29:36.859Z,0.80
2022-12-12T02:32:11.582Z,0.80
2022-12-12T02:34:47.976Z,0.80
2022-12-12T02:37:22.940Z,0.80
2022-12-12T02:40:02.629Z,0.80
2022-12-12T02:42:38.750Z,0.80
2022-12-12T02:45:14.713Z,0.70
2022-12-12T02:47:49.218Z,0.70
2022-12-12T02:50:21.165Z,0.70
2022-12-12T02:52:50.121Z,0.80
2022-12-12T02:55:19.732Z,0.80
2022-12-12T02:57:49.899Z,0.80
2022-12-12T03:00:21.571Z,0.80
2022-12-12T03:03:33.538Z,0.80
2022-12-12T03:06:35.105Z,0.80
2022-12-12T03:09:17.257Z,0.80
2022-12-12T03:12:00.549Z,0.70
2022-12-12T03:14:43.189Z,0.80
2022-12-12T03:17:18.119Z,0.70
2022-12-12T03:19:55.428Z,0.80
2022-12-12T03:22:28.840Z,0.80
2022-12-12T03:25:03.290Z,0.80
2022-12-12T03:27:36.826Z,0.80
2022-12-12T03:30:08.707Z,0.80
2022-12-12T03:32:43.168Z,0.80
2022-12-12T03:35:18.736Z,0.80
2022-12-12T03:37:52.184Z,0.90
2022-12-12T03:40:26.154Z,0.90
2022-12-12T03:43:00.877Z,0.90
2022-12-12T03:45:35.476Z,0.80
2022-12-12T03:48:10.216Z,0.80
2022-12-12T03:50:45.501Z,0.70
2022-12-12T03:53:18.380Z,0.70
2022-12-12T03:55:52.705Z,0.50
2022-12-12T03:58:27.942Z,0.50
2022-12-12T04:00:59.219Z,0.40
2022-12-12T04:03:33.570Z,0.30
2022-12-12T04:06:25.947Z,0.30
2022-12-12T04:09:11.637Z,0.20
2022-12-12T04:12:01.932Z,0.20
2022-12-12T04:14:46.424Z,0.20
2022-12-12T04:17:20.302Z,0.30
2022-12-12T04:20:14.360Z,0.20
2022-12-12T04:23:07.026Z,0.30
2022-12-12T04:26:02.375Z,0.30
2022-12-12T04:28:33.228Z,0.30
2022-12-12T04:31:05.382Z,0.30
2022-12-12T04:33:40.424Z,0.30
2022-12-12T04:36:11.105Z,0.30
2022-12-12T04:38:44.048Z,0.40
2022-12-12T04:41:14.504Z,0.40
2022-12-12T04:43:45.063Z,0.40
2022-12-12T04:46:17.220Z,0.40
2022-12-12T04:48:51.839Z,0.40
2022-12-12T04:51:27.981Z,0.40
2022-12-12T04:54:03.461Z,0.40
2022-12-12T04:56:33.517Z,0.40
2022-12-12T04:59:01.573Z,0.40
2022-12-12T05:01:36.550Z,0.40
2022-12-12T05:04:10.630Z,0.40
2022-12-12T05:06:44.379Z,0.40
2022-12-12T05:09:14.918Z,0.40
2022-12-12T05:11:43.835Z,0.50
2022-12-12T05:14:15.437Z,0.50
2022-12-12T05:16:46.968Z,0.40
2022-12-12T05:19:15.230Z,0.40
2022-12-12T05:21:43.530Z,0.40
2022-12-12T05:24:12.939Z,0.40
2022-12-12T05:26:41.055Z,0.40
2022-12-12T05:29:09.125Z,0.40
2022-12-12T05:31:37.402Z,0.40
2022-12-12T05:34:05.677Z,0.30
2022-12-12T05:36:33.691Z,0.30
2022-12-12T05:39:01.691Z,0.20
2022-12-12T05:41:31.149Z,0.20
2022-12-12T05:43:59.165Z,0.10
2022-12-12T05:46:27.249Z,0.10
2022-12-12T05:48:55.790Z,0.10
2022-12-12T05:51:23.802Z,0.00
2022-12-12T05:53:51.807Z,-0.10
2022-12-12T05:56:19.838Z,-0.10
2022-12-12T05:58:49.259Z,-0.20
2022-12-12T06:01:17.303Z,-0.20
2022-12-12T06:03:45.286Z,-0.20
2022-12-12T06:06:13.580Z,-0.20
2022-12-12T06:08:41.839Z,-0.30
2022-12-12T06:11:10.396Z,-0.30
2022-12-12T06:13:39.258Z,-0.40
2022-12-12T06:16:10.233Z,-0.40
2022-12-12T06:18:38.495Z,-0.50
2022-12-12T06:21:08.466Z,-0.50
2022-12-12T06:23:38.221Z,-0.50
2022-12-12T06:26:06.723Z,-0.50
2022-12-12T06:28:34.912Z,-0.50
2022-12-12T06:31:08.170Z,-0.50
2022-12-12T06:33:40.971Z,-0.50
2022-12-12T06:36:13.971Z,-0.50
2022-12-12T06:38:42.568Z,-0.50
2022-12-12T06:41:12.386Z,-0.60
2022-12-12T06:43:40.897Z,-0.60
2022-12-12T06:46:11.863Z,-0.60
2022-12-12T06:48:41.568Z,-0.70
2022-12-12T06:51:11.105Z,-0.70
2022-12-12T06:53:39.140Z,-0.70
2022-12-12T06:56:08.914Z,-0.60
2022-12-12T06:58:37.004Z,-0.70
2022-12-12T07:01:05.805Z,-0.70
2022-12-12T07:03:34.409Z,-0.60
2022-12-12T07:06:03.953Z,-0.60
2022-12-12T07:08:32.205Z,-0.70
2022-12-12T07:11:05.485Z,-0.60
2022-12-12T07:13:33.754Z,-0.60
2022-12-12T07:16:02.027Z,-0.50
2022-12-12T07:18:30.074Z,-0.50
2022-12-12T07:20:58.071Z,-0.40
2022-12-12T07:23:27.593Z,-0.20
2022-12-12T07:25:55.543Z,0.00
2022-12-12T07:28:23.804Z,0.10
2022-12-12T07:30:51.879Z,0.10
2022-12-12T07:33:20.118Z,0.10
2022-12-12T07:35:48.130Z,0.10
2022-12-12T07:38:16.371Z,0.00
2022-12-12T07:40:45.689Z,0.00
2022-12-12T07:43:13.754Z,-0.10
2022-12-12T07:45:45.487Z,-0.10
2022-12-12T07:48:14.149Z,-0.10
2022-12-12T07:50:42.861Z,-0.10
2022-12-12T07:53:10.813Z,-0.10
2022-12-12T07:55:40.548Z,0.00
2022-12-12T07:58:10.041Z,0.10
2022-12-12T08:00:41.066Z,0.20
2022-12-12T08:03:09.075Z,0.20
2022-12-12T08:05:42.319Z,0.30
2022-12-12T08:08:10.982Z,0.40
2022-12-12T08:10:40.320Z,0.50
2022-12-12T08:13:10.378Z,0.50
2022-12-12T08:15:38.552Z,0.60
2022-12-12T08:18:06.748Z,0.70
2022-12-12T08:20:34.767Z,0.80
2022-12-12T08:23:02.868Z,0.80
2022-12-12T08:25:39.498Z,0.80
2022-12-12T08:28:15.494Z,1.00
2022-12-12T08:31:06.878Z,1.10
2022-12-12T08:33:41.149Z,1.20
2022-12-12T08:36:25.271Z,1.30
2022-12-12T08:38:54.308Z,1.30
2022-12-12T08:41:22.468Z,1.20
2022-12-12T08:43:52.875Z,1.20
2022-12-12T08:46:33.844Z,1.20
2022-12-12T08:49:01.939Z,1.20
2022-12-12T08:51:30.162Z,1.20
2022-12-12T08:54:02.695Z,1.20
2022-12-12T08:56:58.613Z,1.30
2022-12-12T08:59:50.590Z,1.20
2022-12-12T09:03:01.131Z,1.30
2022-12-12T09:05:29.629Z,1.30
2022-12-12T09:08:01.461Z,1.50
2022-12-12T09:10:36.207Z,1.50
2022-12-12T09:13:08.039Z,1.60
2022-12-12T09:15:38.645Z,1.60
2022-12-12T09:18:07.071Z,1.60
2022-12-12T09:20:35.085Z,1.60
2022-12-12T09:23:03.121Z,1.60
2022-12-12T09:25:31.163Z,1.60
2022-12-12T09:27:59.248Z,1.60
2022-12-12T09:30:27.485Z,1.60
2022-12-12T09:32:56.845Z,1.70
2022-12-12T09:35:24.727Z,1.70
2022-12-12T09:37:54.149Z,1.80
2022-12-12T09:40:28.823Z,1.80
2022-12-12T09:42:57.253Z,1.90
2022-12-12T09:45:25.386Z,1.90
2022-12-12T09:48:00.529Z,1.90
2022-12-12T09:50:33.020Z,1.80
2022-12-12T09:53:04.585Z,1.80
2022-12-12T09:55:47.866Z,1.90
2022-12-12T09:58:22.881Z,2.40
2022-12-12T10:00:58.869Z,3.20
2022-12-12T10:03:40.210Z,3.80
2022-12-12T10:06:36.374Z,3.70
2022-12-12T10:09:10.318Z,3.90
2022-12-12T10:11:54.896Z,4.30
2022-12-12T10:14:30.573Z,4.30
2022-12-12T10:16:59.934Z,4.10
2022-12-12T10:19:32.089Z,3.70
2022-12-12T10:22:05.635Z,3.40
2022-12-12T10:24:42.206Z,3.10
2022-12-12T10:27:13.050Z,3.20
2022-12-12T10:29:44.801Z,4.00
2022-12-12T10:32:22.190Z,5.10
2022-12-12T10:35:03.696Z,6.20
2022-12-12T10:37:43.747Z,6.90
2022-12-12T10:40:25.720Z,7.50
2022-12-12T10:43:01.428Z,8.00
2022-12-12T10:45:42.572Z,8.20
2022-12-12T10:48:12.780Z,8.30
2022-12-12T10:50:46.751Z,8.20
2022-12-12T10:53:15.001Z,8.20
2022-12-12T10:55:49.422Z,7.90
2022-12-12T10:58:18.313Z,7.60
2022-12-12T11:00:49.361Z,7.00
2022-12-12T11:03:29.803Z,6.60
2022-12-12T11:05:59.834Z,6.40
2022-12-12T11:08:43.292Z,6.40
2022-12-12T11:11:24.329Z,6.90
2022-12-12T11:14:30.506Z,7.60
2022-12-12T11:16:58.582Z,8.00
2022-12-12T11:19:28.244Z,8.30
2022-12-12T11:22:15.926Z,8.60
2022-12-12T11:24:46.823Z,8.80
2022-12-12T11:27:23.199Z,8.50
2022-12-12T11:29:56.430Z,7.90
2022-12-12T11:32:28.250Z,7.40
2022-12-12T11:34:59.332Z,7.00
2022-12-12T11:37:39.132Z,6.60
2022-12-12T11:40:18.998Z,6.30
2022-12-12T11:42:49.153Z,6.00
2022-12-12T11:45:24.340Z,5.80
2022-12-12T11:47:52.910Z,5.80
2022-12-12T11:50:23.921Z,5.70
2022-12-12T11:52:55.287Z,5.60
2022-12-12T11:58:15.963Z,5.40
2022-12-12T12:00:51.802Z,5.20
2022-12-12T12:03:39.402Z,5.00
2022-12-12T12:06:21.199Z,4.70
2022-12-12T12:09:16.919Z,4.40
2022-12-12T12:11:53.548Z,4.10
2022-12-12T12:14:35.214Z,3.80
2022-12-12T12:17:11.987Z,3.60
2022-12-12T12:19:47.357Z,3.50
2022-12-12T12:22:28.833Z,3.40
2022-12-12T12:25:15.437Z,3.30
2022-12-12T12:27:51.167Z,3.20
2022-12-12T12:30:22.950Z,3.20
2022-12-12T12:33:15.685Z,3.20
2022-12-12T12:35:54.510Z,3.30
2022-12-12T12:38:29.242Z,3.10
2022-12-12T12:41:12.751Z,3.10
2022-12-12T12:43:54.447Z,3.10
2022-12-12T12:46:34.931Z,3.10
2022-12-12T12:49:11.259Z,3.10
2022-12-12T12:51:48.650Z,3.00
2022-12-12T12:54:24.137Z,3.00
2022-12-12T12:57:01.132Z,3.00
2022-12-12T12:59:33.880Z,3.10
2022-12-12T13:02:09.669Z,3.10
2022-12-12T13:04:43.692Z,3.20
2022-12-12T13:07:18.399Z,3.10
2022-12-12T13:09:54.807Z,3.20
2022-12-12T13:12:30.702Z,3.20
2022-12-12T13:15:02.068Z,3.10
2022-12-12T13:17:42.560Z,3.10
2022-12-12T13:20:17.156Z,3.10
2022-12-12T13:22:55.034Z,3.10
2022-12-12T13:25:32.701Z,3.10
2022-12-12T13:28:06.000Z,3.20
2022-12-12T13:30:48.303Z,3.00
2022-12-12T13:33:35.617Z,3.10
2022-12-12T13:36:13.527Z,3.10
2022-12-12T13:38:47.264Z,3.10
2022-12-12T13:41:15.602Z,3.10
2022-12-12T13:43:48.458Z,2.80
2022-12-12T13:46:36.029Z,2.90
2022-12-12T13:49:18.088Z,2.90
2022-12-12T13:51:46.736Z,2.90
2022-12-12T13:54:51.582Z,2.90
2022-12-12T13:57:25.503Z,2.70
2022-12-12T14:00:26.020Z,2.70
2022-12-12T14:03:31.517Z,2.70
2022-12-12T14:06:12.140Z,2.70
2022-12-12T14:08:50.256Z,2.70
2022-12-12T14:11:37.629Z,2.60
2022-12-12T14:14:24.115Z,2.70
2022-12-12T14:16:58.197Z,2.60
2022-12-12T14:19:30.430Z,2.70
2022-12-12T14:21:58.638Z,2.70
2022-12-12T14:25:03.617Z,2.60
2022-12-12T14:28:14.557Z,2.60
2022-12-12T14:30:52.561Z,2.80
2022-12-12T14:34:09.745Z,2.50
2022-12-12T14:37:08.611Z,2.40
2022-12-12T14:39:51.952Z,2.30
2022-12-12T14:42:26.945Z,2.10
2022-12-12T14:45:33.215Z,2.10
2022-12-12T14:48:12.106Z,2.00
2022-12-12T14:50:45.466Z,1.90
2022-12-12T14:53:18.605Z,1.80
2022-12-12T14:55:53.202Z,1.70
2022-12-12T14:58:24.360Z,1.70
2022-12-12T15:00:55.628Z,1.70
2022-12-12T15:03:30.918Z,1.70
2022-12-12T15:06:29.501Z,1.70
2022-12-12T15:08:59.224Z,1.80
2022-12-12T15:11:32.915Z,1.80
2022-12-12T15:14:03.250Z,1.80
2022-12-12T15:16:44.361Z,1.80
2022-12-12T15:19:20.322Z,1.80
2022-12-12T15:21:50.091Z,1.80
2022-12-12T15:24:21.370Z,1.80
2022-12-12T15:26:51.849Z,1.70
2022-12-12T15:29:23.200Z,1.60
2022-12-12T15:31:57.552Z,1.50
2022-12-12T15:34:43.953Z,1.50
2022-12-12T15:37:28.745Z,1.60
2022-12-12T15:40:17.618Z,1.60
2022-12-12T15:42:48.620Z,1.60
2022-12-12T15:45:21.558Z,1.50
2022-12-12T15:47:51.740Z,1.40
2022-12-12T15:50:21.807Z,1.30
2022-12-12T15:53:05.586Z,1.20
2022-12-12T15:55:35.168Z,1.10
2022-12-12T15:58:03.321Z,1.10
2022-12-12T16:00:35.739Z,1.20
2022-12-12T16:03:07.236Z,1.20
2022-12-12T16:05:37.644Z,1.20
2022-12-12T16:08:32.375Z,1.10
2022-12-12T16:11:04.508Z,1.10
2022-12-12T16:13:38.344Z,1.10
2022-12-12T16:16:38.136Z,1.00
2022-12-12T16:19:15.612Z,0.90
2022-12-12T16:21:44.144Z,0.80
2022-12-12T16:24:22.074Z,0.70
2022-12-12T16:26:50.375Z,0.60
2022-12-12T16:29:18.896Z,0.70
2022-12-12T16:31:47.639Z,1.10
2022-12-12T16:34:16.519Z,0.60
2022-12-12T16:36:44.791Z,0.70
2022-12-12T16:39:16.970Z,0.60
2022-12-12T16:41:45.894Z,0.70
2022-12-12T16:44:14.116Z,0.70
2022-12-12T16:46:42.365Z,0.70
2022-12-12T16:49:15.263Z,0.70
2022-12-12T16:51:44.148Z,0.70
2022-12-12T16:54:17.948Z,0.80
2022-12-12T16:56:52.511Z,0.80
2022-12-12T16:59:20.578Z,0.80
2022-12-12T17:01:48.766Z,0.70
2022-12-12T17:04:21.048Z,0.70
2022-12-12T17:06:49.396Z,0.70
2022-12-12T17:09:19.875Z,0.70
2022-12-12T17:11:49.252Z,0.60
2022-12-12T17:14:21.584Z,0.50
2022-12-12T17:16:49.891Z,1.60
2022-12-12T17:19:18.275Z,0.50
2022-12-12T17:21:46.813Z,0.30
2022-12-12T17:24:15.065Z,0.30
2022-12-12T17:26:44.522Z,0.30
2022-12-12T17:29:13.712Z,0.20
2022-12-12T17:31:42.242Z,0.30
2022-12-12T17:34:11.459Z,0.10
2022-12-12T17:36:39.548Z,0.00
2022-12-12T17:39:07.627Z,0.00
2022-12-12T17:41:35.790Z,-0.10
2022-12-12T17:44:05.523Z,-0.10
2022-12-12T17:46:34.113Z,-0.20
2022-12-12T17:49:03.425Z,-0.20
2022-12-12T17:51:31.548Z,-0.20
2022-12-12T17:54:00.234Z,0.00
2022-12-12T17:56:28.366Z,-0.20
2022-12-12T17:58:56.529Z,-0.20
2022-12-12T18:01:28.196Z,-0.30
2022-12-12T18:03:56.870Z,-0.20
2022-12-12T18:06:26.273Z,-0.20
2022-12-12T18:08:54.767Z,-0.20
2022-12-12T18:11:25.544Z,-0.20
2022-12-12T18:13:55.186Z,-0.20
2022-12-12T18:16:27.186Z,-0.20
2022-12-12T18:18:55.998Z,-0.10
2022-12-12T18:24:14.129Z,-0.20
2022-12-12T18:26:42.560Z,-0.20
2022-12-12T18:29:12.748Z,-0.30
2022-12-12T18:31:42.091Z,-0.40
2022-12-12T18:34:10.438Z,-0.40
2022-12-12T18:36:38.448Z,-0.50
2022-12-12T18:39:06.976Z,-0.50
2022-12-12T18:41:36.810Z,-0.50
2022-12-12T18:44:07.175Z,-0.50
2022-12-12T18:46:42.299Z,-0.60
2022-12-12T18:49:15.500Z,-0.60
2022-12-12T18:51:45.057Z,-0.10
2022-12-12T18:54:15.998Z,-0.60
2022-12-12T18:56:45.224Z,-0.60
2022-12-12T18:59:13.683Z,-0.70
2022-12-12T19:01:42.046Z,-0.70
2022-12-12T19:04:14.154Z,-0.80
2022-12-12T19:06:44.823Z,-0.80
2022-12-12T19:09:15.162Z,-0.90
2022-12-12T19:11:44.401Z,-1.00
2022-12-12T19:14:16.799Z,-1.20
2022-12-12T19:16:45.819Z,-1.20
2022-12-12T19:19:14.641Z,-1.40
2022-12-12T19:21:45.035Z,-1.40
2022-12-12T19:24:14.656Z,-1.50
2022-12-12T19:26:44.685Z,-1.60
2022-12-12T19:29:14.731Z,-1.70
2022-12-12T19:31:42.954Z,-1.80
2022-12-12T19:34:15.227Z,-1.80
2022-12-12T19:36:45.481Z,-1.80
2022-12-12T19:39:13.856Z,-1.80
2022-12-12T19:41:42.796Z,-1.90
2022-12-12T19:44:14.707Z,-1.90
2022-12-12T19:46:45.611Z,-1.80
2022-12-12T19:49:15.416Z,-1.90
2022-12-12T19:51:45.880Z,-1.90
2022-12-12T19:54:16.431Z,-1.80
2022-12-12T19:56:44.934Z,-1.80
2022-12-12T19:59:14.356Z,-1.80
2022-12-12T20:01:43.132Z,-1.90
2022-12-12T20:04:16.997Z,-1.90
2022-12-12T20:06:49.244Z,-1.90
2022-12-12T20:09:20.000Z,-1.90
2022-12-12T20:11:48.876Z,-2.00
2022-12-12T20:14:19.160Z,-2.00
2022-12-12T20:16:47.906Z,-2.10
2022-12-12T20:19:16.358Z,-2.10
2022-12-12T20:22:03.534Z,-2.10
2022-12-12T20:24:33.455Z,-2.10
2022-12-12T20:27:03.816Z,-2.20
2022-12-12T20:29:32.410Z,-2.20
2022-12-12T20:32:01.422Z,-2.20
2022-12-12T20:34:30.184Z,-2.30
2022-12-12T20:36:59.738Z,-2.40
2022-12-12T20:39:28.002Z,-1.70
2022-12-12T20:41:57.684Z,-2.40
2022-12-12T20:44:26.110Z,-2.40
2022-12-12T20:46:54.575Z,-2.40
2022-12-12T20:49:24.841Z,-2.40
2022-12-12T20:51:56.455Z,-2.40
2022-12-12T20:54:28.122Z,-2.40
2022-12-12T20:56:57.799Z,-2.50
2022-12-12T20:59:26.307Z,-2.60
2022-12-12T21:01:54.675Z,-2.60
2022-12-12T21:04:24.182Z,-2.70
2022-12-12T21:06:52.564Z,-2.70
2022-12-12T21:09:25.362Z,-2.70
2022-12-12T21:11:56.710Z,-2.80
2022-12-12T21:14:25.032Z,-2.80
2022-12-12T21:16:53.786Z,-2.80
2022-12-12T21:19:23.666Z,-2.80
2022-12-12T21:21:52.230Z,-2.80
2022-12-12T21:24:21.412Z,-2.90
2022-12-12T21:26:49.785Z,-2.90
2022-12-12T21:29:19.447Z,-2.80
2022-12-12T21:31:52.059Z,-2.80
2022-12-12T21:34:22.357Z,-2.80
2022-12-12T21:36:54.171Z,-2.80
2022-12-12T21:39:23.274Z,-2.90
2022-12-12T21:41:51.907Z,-2.90
2022-12-12T21:44:22.473Z,-2.90
2022-12-12T21:46:50.792Z,-2.90
2022-12-12T21:49:27.429Z,-2.90
2022-12-12T21:51:56.958Z,-3.00
2022-12-12T21:54:25.159Z,-3.00
2022-12-12T21:56:53.984Z,-3.10
2022-12-12T21:59:26.198Z,-3.10
2022-12-12T22:01:55.615Z,-3.20
2022-12-12T22:04:24.073Z,-3.20
2022-12-12T22:06:56.994Z,-3.20
2022-12-12T22:09:29.307Z,-3.20
2022-12-12T22:12:04.383Z,-3.30
2022-12-12T22:14:48.097Z,-3.30
2022-12-12T22:17:16.689Z,-3.30
2022-12-12T22:19:45.127Z,-3.30
2022-12-12T22:22:16.018Z,-3.30
2022-12-12T22:24:44.099Z,-3.30
2022-12-12T22:27:12.161Z,-3.40
2022-12-12T22:29:41.608Z,-3.30
2022-12-12T22:32:09.721Z,-3.30
2022-12-12T22:34:37.768Z,-3.30
2022-12-12T22:37:05.836Z,-3.30
2022-12-12T22:39:34.184Z,-3.40
2022-12-12T22:42:02.284Z,-3.30
2022-12-12T22:44:30.445Z,-3.40
2022-12-12T22:46:59.986Z,-3.40
2022-12-12T22:49:28.423Z,-3.40
2022-12-12T22:51:57.981Z,-3.40
2022-12-12T22:54:26.932Z,-3.40
2022-12-12T22:56:55.153Z,-3.40
2022-12-12T22:59:23.283Z,-3.40
2022-12-12T23:01:51.256Z,-3.40
2022-12-12T23:04:20.663Z,-3.40
2022-12-12T23:06:49.049Z,-3.50
2022-12-12T23:09:19.528Z,-3.50
2022-12-12T23:11:47.742Z,-3.60
2022-12-12T23:14:17.296Z,-3.60
2022-12-12T23:16:46.330Z,-3.70
2022-12-12T23:19:16.087Z,-3.70
2022-12-12T23:21:45.671Z,-3.70
2022-12-12T23:24:14.789Z,-3.60
2022-12-12T23:26:43.590Z,-3.70
2022-12-12T23:29:16.322Z,-3.70
2022-12-12T23:31:45.338Z,-3.70
2022-12-12T23:34:16.365Z,-3.60
2022-12-12T23:36:45.890Z,-3.60
2022-12-12T23:39:15.008Z,-3.60
2022-12-12T23:41:43.449Z,-3.60
2022-12-12T23:44:13.371Z,-3.60
2022-12-12T23:46:41.501Z,-3.60
2022-12-12T23:49:17.515Z,-3.70
2022-12-12T23:51:48.732Z,-3.60
2022-12-12T23:54:19.052Z,-3.70
2022-12-12T23:56:48.096Z,-3.70
2022-12-12T23:59:18.563Z,-3.70
